< < Back
Terminal Aerodrome Forecast


Current Version              Previous Versions:   1  2  3  4  5  6  7  8  9  

Terminal Aerodrome Forecast

255
FTUS42 KCAE 062000 AAA
TAFCAE
TAF AMD
KCAE 062050Z 0621/0718 36005KT P6SM SCT250
     FM070100 VRB03KT P6SM FEW250
     FM071500 22005KT P6SM SKC=

Latest METAR

667
SAUS80 KWBC 070400
MTRCAE
METAR KCAE 070356Z 00000KT 10SM SCT250 01/M02 A3043 RMK AO2 SLP306
T00111017


USA.gov is the U.S. government's official web portal to all federal, state and local government web resources and services.